Extreme high temperature From: 23-07-2018 05:00 Until: 24-07-2018 01:00 warning for: Extreme high temperature Level: Yellow info button
suomi:
Hellevaroitus: Lähivuorokauden aikana on odotettavissa tukalaa hellettä.

svenska:
Varning för värmebölja: Under det närmaste dygnet är den svåra hettan att vänta.

english:
Heat wave warning: Warm weather is expected during the coming 24 hours. 


Thunder radar more information blitzortung!


Löydät sääaseman tiedot myös:

European Weather Network

Finland Weather Exchange

Weather Underground

AWEKAS



Weather Underground säähistoriasivu

Päivittäin yhteenveto Joulukuu 3, 2017 Yksiköt:  Molemmat    Englantilaiset   Metriset
« Edellinen Päivä
Seuraava Päivä »
Päivittäin Viikoittain Kuukausittain Vuosittain Mukautettu
  Korkea: Matala: Keskiarvo:
Lämpötila: TemperatureC °F /  -17.8 °C -0.2 °F /  -17.9 °C 1.5 °F /  -16.9 °C
Kastepiste: DewpointC °F /  -17.8 °C -0.6 °F /  -18.1 °C 1.1 °F /  -17.2 °C
Kosteus: Humidity % 93 % 96 %
Tuulen nopeus: WindSpeedKMH mph /  0 km/h - 3.8 mph /  6.1 km/h
Tuulenpuuska: WindSpeedGustKMH mph /  0 km/h - -
Tuuli:- - SSW
Ilmanpaine: PressurehPa in /  0 hPa 995.1 in /  33694.1 hPa -
Sade: 0.0 in /  0 mm    
Historical Graphs
 
 
Taulukkotiedot Joulukuu 3, 2017
Aika Lämpötila Kastepiste Ilmanpaine Tuuli Tuulen nopeus Tuulenpuuska Kosteus Sademäärä (tunneittain)
TemperatureC °F /  -17.8 °C DewpointC °F /  -17.8 °C PressurehPa in /  0 hPa Calm     Humidity % HourlyPrecipMM in /  0 mm
00:00 2.7 °F /  -16.3 °C 1.7 °F /  -16.8 °C 1000.6 in /  33880.3 hPa SSW 12.9 mph /  20.8 km/h 30.6 mph /  49.2 km/h 93 % 0.0 in /  0 mm
00:15 2.7 °F /  -16.3 °C 1.7 °F /  -16.8 °C 1000.2 in /  33866.8 hPa SSW 11.3 mph /  18.2 km/h 24.1 mph /  38.8 km/h 93 % 0.0 in /  0 mm
00:30 2.7 °F /  -16.3 °C 1.7 °F /  -16.8 °C 1000.2 in /  33866.8 hPa SSW 12.9 mph /  20.8 km/h 24.1 mph /  38.8 km/h 93 % 0.0 in /  0 mm
01:00 2.7 °F /  -16.3 °C 1.6 °F /  -16.9 °C 999.9 in /  33856.6 hPa SSW 12.9 mph /  20.8 km/h 27.4 mph /  44.1 km/h 93 % 0.0 in /  0 mm
01:15 2.7 °F /  -16.3 °C 1.6 °F /  -16.9 °C 999.9 in /  33856.6 hPa SSW 11.3 mph /  18.2 km/h 32.2 mph /  51.8 km/h 93 % 0.0 in /  0 mm
01:30 2.7 °F /  -16.3 °C 1.6 °F /  -16.9 °C 999.9 in /  33856.6 hPa SSW 12.9 mph /  20.8 km/h 29.0 mph /  46.7 km/h 93 % 0.0 in /  0 mm
01:45 2.7 °F /  -16.3 °C 1.6 °F /  -16.9 °C 999.5 in /  33843.1 hPa SSW 12.9 mph /  20.8 km/h 30.6 mph /  49.2 km/h 93 % 0.0 in /  0 mm
02:00 2.7 °F /  -16.3 °C 1.9 °F /  -16.7 °C 999.5 in /  33843.1 hPa SSW 11.3 mph /  18.2 km/h 27.4 mph /  44.1 km/h 94 % 0.0 in /  0 mm
02:15 2.7 °F /  -16.3 °C 1.9 °F /  -16.7 °C 999.5 in /  33843.1 hPa SSW 12.9 mph /  20.8 km/h 30.6 mph /  49.2 km/h 94 % 0.0 in /  0 mm
02:45 2.8 °F /  -16.2 °C 1.9 °F /  -16.7 °C 999.5 in /  33843.1 hPa SSW 11.3 mph /  18.2 km/h 24.1 mph /  38.8 km/h 94 % 0.0 in /  0 mm
03:00 2.7 °F /  -16.3 °C 1.9 °F /  -16.7 °C 999.5 in /  33843.1 hPa SSW 11.3 mph /  18.2 km/h 22.5 mph /  36.2 km/h 94 % 0.0 in /  0 mm
03:30 2.7 °F /  -16.3 °C 1.9 °F /  -16.7 °C 999.2 in /  33832.9 hPa SSW 8.0 mph /  12.9 km/h 16.1 mph /  25.9 km/h 95 % 0.0 in /  0 mm
03:45 2.4 °F /  -16.4 °C 1.7 °F /  -16.8 °C 999.2 in /  33832.9 hPa SSW 8.0 mph /  12.9 km/h 16.1 mph /  25.9 km/h 95 % 0.0 in /  0 mm
04:00 2.3 °F /  -16.5 °C 1.7 °F /  -16.8 °C 998.9 in /  33822.8 hPa SSW 9.7 mph /  15.6 km/h 22.5 mph /  36.2 km/h 96 % 0.0 in /  0 mm
04:15 2.2 °F /  -16.6 °C 1.7 °F /  -16.8 °C 998.5 in /  33809.2 hPa SSW 11.3 mph /  18.2 km/h 24.1 mph /  38.8 km/h 96 % 0.0 in /  0 mm
04:30 2.2 °F /  -16.6 °C 1.7 °F /  -16.8 °C 998.5 in /  33809.2 hPa SSW 9.7 mph /  15.6 km/h 24.1 mph /  38.8 km/h 96 % 0.0 in /  0 mm
04:45 2.3 °F /  -16.5 °C 1.7 °F /  -16.8 °C 998.2 in /  33799.1 hPa SSW 9.7 mph /  15.6 km/h 25.7 mph /  41.4 km/h 96 % 0.0 in /  0 mm
05:00 2.3 °F /  -16.5 °C 1.8 °F /  -16.8 °C 998.2 in /  33799.1 hPa SSW 9.7 mph /  15.6 km/h 20.9 mph /  33.6 km/h 96 % 0.0 in /  0 mm
05:15 2.3 °F /  -16.5 °C 1.8 °F /  -16.8 °C 998.2 in /  33799.1 hPa SSW 9.7 mph /  15.6 km/h 19.3 mph /  31.1 km/h 96 % 0.0 in /  0 mm
05:30 2.3 °F /  -16.5 °C 1.8 °F /  -16.8 °C 997.9 in /  33788.9 hPa SSW 11.3 mph /  18.2 km/h 22.5 mph /  36.2 km/h 96 % 0.0 in /  0 mm
05:45 2.3 °F /  -16.5 °C 1.8 °F /  -16.8 °C 998.2 in /  33799.1 hPa SSW 11.3 mph /  18.2 km/h 27.4 mph /  44.1 km/h 96 % 0.0 in /  0 mm
06:00 2.3 °F /  -16.5 °C 1.9 °F /  -16.7 °C 997.9 in /  33788.9 hPa SSW 9.7 mph /  15.6 km/h 24.1 mph /  38.8 km/h 97 % 0.0 in /  0 mm
06:15 2.2 °F /  -16.6 °C 1.8 °F /  -16.8 °C 997.9 in /  33788.9 hPa SSW 6.4 mph /  10.3 km/h 14.5 mph /  23.3 km/h 97 % 0.0 in /  0 mm
06:30 2.1 °F /  -16.6 °C 1.6 °F /  -16.9 °C 997.9 in /  33788.9 hPa SW 4.8 mph /  7.7 km/h 11.3 mph /  18.2 km/h 97 % 0.0 in /  0 mm
06:45 2.0 °F /  -16.7 °C 1.6 °F /  -16.9 °C 997.5 in /  33775.4 hPa SSW 6.4 mph /  10.3 km/h 14.5 mph /  23.3 km/h 97 % 0.0 in /  0 mm
07:00 1.8 °F /  -16.8 °C 1.4 °F /  -17 °C 997.5 in /  33775.4 hPa SSW 4.8 mph /  7.7 km/h 12.9 mph /  20.8 km/h 97 % 0.0 in /  0 mm
07:15 1.6 °F /  -16.9 °C 1.1 °F /  -17.2 °C 997.5 in /  33775.4 hPa SSW 4.8 mph /  7.7 km/h 12.9 mph /  20.8 km/h 97 % 0.0 in /  0 mm
07:30 1.2 °F /  -17.1 °C 0.8 °F /  -17.3 °C 997.5 in /  33775.4 hPa SSW 3.2 mph /  5.1 km/h 8.0 mph /  12.9 km/h 97 % 0.0 in /  0 mm
07:45 1.1 °F /  -17.2 °C 0.7 °F /  -17.4 °C 997.5 in /  33775.4 hPa SSW 1.6 mph /  2.6 km/h 8.0 mph /  12.9 km/h 97 % 0.0 in /  0 mm
08:00 1.1 °F /  -17.2 °C 0.7 °F /  -17.4 °C 997.2 in /  33765.2 hPa Calm   3.2 mph /  5.1 km/h 97 % 0.0 in /  0 mm
08:15 1.1 °F /  -17.2 °C 0.6 °F /  -17.4 °C 997.2 in /  33765.2 hPa Calm     97 % 0.0 in /  0 mm
08:30 1.1 °F /  -17.2 °C 0.6 °F /  -17.4 °C 997.2 in /  33765.2 hPa Calm     97 % 0.0 in /  0 mm
08:45 1.1 °F /  -17.2 °C 0.6 °F /  -17.4 °C 996.8 in /  33751.6 hPa Calm   4.8 mph /  7.7 km/h 97 % 0.0 in /  0 mm
09:00 1.1 °F /  -17.2 °C 0.6 °F /  -17.4 °C 996.8 in /  33751.6 hPa Calm     97 % 0.0 in /  0 mm
09:15 1.1 °F /  -17.2 °C 0.6 °F /  -17.4 °C 996.8 in /  33751.6 hPa Calm   8.0 mph /  12.9 km/h 97 % 0.0 in /  0 mm
09:30 1.1 °F /  -17.2 °C 0.6 °F /  -17.4 °C 996.8 in /  33751.6 hPa SSE 1.6 mph /  2.6 km/h 6.4 mph /  10.3 km/h 97 % 0.0 in /  0 mm
09:45 1.1 °F /  -17.2 °C 0.7 °F /  -17.4 °C 996.5 in /  33741.5 hPa Calm     97 % 0.0 in /  0 mm
10:00 1.2 °F /  -17.1 °C 0.9 °F /  -17.3 °C 996.5 in /  33741.5 hPa South 1.6 mph /  2.6 km/h 8.0 mph /  12.9 km/h 98 % 0.0 in /  0 mm
10:15 1.4 °F /  -17 °C 1.1 °F /  -17.2 °C 996.2 in /  33731.3 hPa SSW 3.2 mph /  5.1 km/h 8.0 mph /  12.9 km/h 98 % 0.0 in /  0 mm
10:45 1.7 °F /  -16.8 °C 1.4 °F /  -17 °C 996.5 in /  33741.5 hPa SSW 3.2 mph /  5.1 km/h 12.9 mph /  20.8 km/h 98 % 0.0 in /  0 mm
11:00 1.6 °F /  -16.9 °C 1.3 °F /  -17.1 °C 996.5 in /  33741.5 hPa SW 4.8 mph /  7.7 km/h 11.3 mph /  18.2 km/h 98 % 0.0 in /  0 mm
11:15 1.6 °F /  -16.9 °C 1.3 °F /  -17.1 °C 996.5 in /  33741.5 hPa SSW 3.2 mph /  5.1 km/h 11.3 mph /  18.2 km/h 98 % 0.0 in /  0 mm
11:30 1.7 °F /  -16.8 °C 1.4 °F /  -17 °C 996.5 in /  33741.5 hPa SSW 3.2 mph /  5.1 km/h 9.7 mph /  15.6 km/h 98 % 0.0 in /  0 mm
11:45 1.7 °F /  -16.8 °C 1.4 °F /  -17 °C 996.5 in /  33741.5 hPa SSW 3.2 mph /  5.1 km/h 9.7 mph /  15.6 km/h 98 % 0.0 in /  0 mm
12:00 1.7 °F /  -16.8 °C 1.4 °F /  -17 °C 996.5 in /  33741.5 hPa SSW 3.2 mph /  5.1 km/h 12.9 mph /  20.8 km/h 98 % 0.0 in /  0 mm
12:15 1.8 °F /  -16.8 °C 1.5 °F /  -16.9 °C 996.5 in /  33741.5 hPa SSW 3.2 mph /  5.1 km/h 8.0 mph /  12.9 km/h 98 % 0.0 in /  0 mm
12:30 1.8 °F /  -16.8 °C 1.6 °F /  -16.9 °C 996.5 in /  33741.5 hPa SW 3.2 mph /  5.1 km/h 8.0 mph /  12.9 km/h 98 % 0.0 in /  0 mm
12:45 1.8 °F /  -16.8 °C 1.6 °F /  -16.9 °C 996.5 in /  33741.5 hPa SW 1.6 mph /  2.6 km/h 8.0 mph /  12.9 km/h 98 % 0.0 in /  0 mm
13:00 1.9 °F /  -16.7 °C 1.6 °F /  -16.9 °C 996.2 in /  33731.3 hPa SSW 3.2 mph /  5.1 km/h 8.0 mph /  12.9 km/h 98 % 0.0 in /  0 mm
13:15 1.9 °F /  -16.7 °C 1.7 °F /  -16.8 °C 996.2 in /  33731.3 hPa SSW 1.6 mph /  2.6 km/h 9.7 mph /  15.6 km/h 98 % 0.0 in /  0 mm
13:30 1.9 °F /  -16.7 °C 1.7 °F /  -16.8 °C 996.2 in /  33731.3 hPa SSW 1.6 mph /  2.6 km/h 8.0 mph /  12.9 km/h 98 % 0.0 in /  0 mm
13:45 1.9 °F /  -16.7 °C 1.7 °F /  -16.8 °C 996.2 in /  33731.3 hPa SW 3.2 mph /  5.1 km/h 6.4 mph /  10.3 km/h 98 % 0.0 in /  0 mm
14:00 1.9 °F /  -16.7 °C 1.7 °F /  -16.8 °C 996.2 in /  33731.3 hPa SW 1.6 mph /  2.6 km/h 6.4 mph /  10.3 km/h 98 % 0.0 in /  0 mm
14:15 1.9 °F /  -16.7 °C 1.7 °F /  -16.8 °C 996.2 in /  33731.3 hPa SW 1.6 mph /  2.6 km/h 8.0 mph /  12.9 km/h 98 % 0.0 in /  0 mm
14:45 2.0 °F /  -16.7 °C 1.7 °F /  -16.8 °C 995.8 in /  33717.8 hPa SSW 3.2 mph /  5.1 km/h 9.7 mph /  15.6 km/h 98 % 0.0 in /  0 mm
15:00 2.1 °F /  -16.6 °C 1.8 °F /  -16.8 °C 995.5 in /  33707.6 hPa SSW 3.2 mph /  5.1 km/h 9.7 mph /  15.6 km/h 98 % 0.0 in /  0 mm
15:15 2.1 °F /  -16.6 °C 1.8 °F /  -16.8 °C 995.1 in /  33694.1 hPa SSW 4.8 mph /  7.7 km/h 9.7 mph /  15.6 km/h 98 % 0.0 in /  0 mm
15:30 2.1 °F /  -16.6 °C 1.8 °F /  -16.8 °C 995.5 in /  33707.6 hPa SSW 3.2 mph /  5.1 km/h 8.0 mph /  12.9 km/h 98 % 0.0 in /  0 mm
15:45 2.2 °F /  -16.6 °C 1.9 °F /  -16.7 °C 995.5 in /  33707.6 hPa SW 1.6 mph /  2.6 km/h 6.4 mph /  10.3 km/h 98 % 0.0 in /  0 mm
16:00 2.3 °F /  -16.5 °C 2.0 °F /  -16.7 °C 995.5 in /  33707.6 hPa SW 1.6 mph /  2.6 km/h 4.8 mph /  7.7 km/h 98 % 0.0 in /  0 mm
16:15 2.3 °F /  -16.5 °C 2.0 °F /  -16.7 °C 995.5 in /  33707.6 hPa Calm   4.8 mph /  7.7 km/h 98 % 0.0 in /  0 mm
16:30 2.3 °F /  -16.5 °C 2.1 °F /  -16.6 °C 995.8 in /  33717.8 hPa Calm   4.8 mph /  7.7 km/h 98 % 0.0 in /  0 mm
16:45 2.3 °F /  -16.5 °C 2.0 °F /  -16.7 °C 995.8 in /  33717.8 hPa Calm   4.8 mph /  7.7 km/h 98 % 0.0 in /  0 mm
17:00 2.1 °F /  -16.6 °C 1.8 °F /  -16.8 °C 996.2 in /  33731.3 hPa Calm     98 % 0.0 in /  0 mm
17:15 1.8 °F /  -16.8 °C 1.5 °F /  -16.9 °C 995.8 in /  33717.8 hPa SW 1.6 mph /  2.6 km/h 4.8 mph /  7.7 km/h 98 % 0.0 in /  0 mm
17:30 1.6 °F /  -16.9 °C 1.3 °F /  -17.1 °C 995.8 in /  33717.8 hPa SW 1.6 mph /  2.6 km/h 6.4 mph /  10.3 km/h 98 % 0.0 in /  0 mm
17:45 1.2 °F /  -17.1 °C 0.8 °F /  -17.3 °C 995.8 in /  33717.8 hPa Calm     97 % 0.0 in /  0 mm
18:00 0.9 °F /  -17.3 °C 0.5 °F /  -17.5 °C 995.8 in /  33717.8 hPa Calm   4.8 mph /  7.7 km/h 97 % 0.0 in /  0 mm
18:15 0.8 °F /  -17.3 °C 0.4 °F /  -17.6 °C 995.8 in /  33717.8 hPa SW 1.6 mph /  2.6 km/h 8.0 mph /  12.9 km/h 97 % 0.0 in /  0 mm
18:30 0.7 °F /  -17.4 °C 0.4 °F /  -17.6 °C 995.8 in /  33717.8 hPa Calm   4.8 mph /  7.7 km/h 98 % 0.0 in /  0 mm
18:45 0.5 °F /  -17.5 °C 0.1 °F /  -17.7 °C 995.8 in /  33717.8 hPa SW 1.6 mph /  2.6 km/h 4.8 mph /  7.7 km/h 97 % 0.0 in /  0 mm
19:00 0.3 °F /  -17.6 °C -0.1 °F /  -17.8 °C 995.8 in /  33717.8 hPa Calm   3.2 mph /  5.1 km/h 97 % 0.0 in /  0 mm
19:15 0.1 °F /  -17.7 °C -0.4 °F /  -18 °C 995.8 in /  33717.8 hPa Calm   4.8 mph /  7.7 km/h 97 % 0.0 in /  0 mm
19:30 0.0 °F /  -17.8 °C -0.3 °F /  -17.9 °C 995.8 in /  33717.8 hPa Calm   3.2 mph /  5.1 km/h 98 % 0.0 in /  0 mm
19:45 -0.2 °F /  -17.9 °C -0.6 °F /  -18.1 °C 996.2 in /  33731.3 hPa Calm     97 % 0.0 in /  0 mm
20:00 -0.1 °F /  -17.8 °C -0.4 °F /  -18 °C 996.2 in /  33731.3 hPa SW 3.2 mph /  5.1 km/h 8.0 mph /  12.9 km/h 98 % 0.0 in /  0 mm
20:15 0.2 °F /  -17.7 °C -0.1 °F /  -17.8 °C 996.2 in /  33731.3 hPa Calm   3.2 mph /  5.1 km/h 98 % 0.0 in /  0 mm
20:30 0.3 °F /  -17.6 °C 0.0 °F /  -17.8 °C 996.5 in /  33741.5 hPa SW 1.6 mph /  2.6 km/h 6.4 mph /  10.3 km/h 98 % 0.0 in /  0 mm
20:45 0.3 °F /  -17.6 °C 0.1 °F /  -17.7 °C 996.5 in /  33741.5 hPa SW 1.6 mph /  2.6 km/h 6.4 mph /  10.3 km/h 98 % 0.0 in /  0 mm
21:00 0.4 °F /  -17.6 °C 0.2 °F /  -17.7 °C 996.5 in /  33741.5 hPa Calm   4.8 mph /  7.7 km/h 98 % 0.0 in /  0 mm
21:15 0.5 °F /  -17.5 °C 0.2 °F /  -17.7 °C 996.5 in /  33741.5 hPa Calm     98 % 0.0 in /  0 mm
21:30 0.4 °F /  -17.6 °C 0.2 °F /  -17.7 °C 996.8 in /  33751.6 hPa Calm     98 % 0.0 in /  0 mm
21:45 0.5 °F /  -17.5 °C 0.2 °F /  -17.7 °C 996.8 in /  33751.6 hPa Calm   6.4 mph /  10.3 km/h 98 % 0.0 in /  0 mm
22:00 0.6 °F /  -17.4 °C 0.3 °F /  -17.6 °C 997.2 in /  33765.2 hPa SSW 1.6 mph /  2.6 km/h 6.4 mph /  10.3 km/h 98 % 0.0 in /  0 mm
22:15 0.5 °F /  -17.5 °C 0.2 °F /  -17.7 °C 997.2 in /  33765.2 hPa Calm   4.8 mph /  7.7 km/h 98 % 0.0 in /  0 mm
22:30 0.4 °F /  -17.6 °C 0.2 °F /  -17.7 °C 997.2 in /  33765.2 hPa Calm     98 % 0.0 in /  0 mm
22:45 0.4 °F /  -17.6 °C 0.2 °F /  -17.7 °C 997.5 in /  33775.4 hPa Calm     98 % 0.0 in /  0 mm
23:00 0.4 °F /  -17.6 °C 0.1 °F /  -17.7 °C 997.2 in /  33765.2 hPa Calm   3.2 mph /  5.1 km/h 98 % 0.0 in /  0 mm
23:15 0.3 °F /  -17.6 °C 0.0 °F /  -17.8 °C 997.5 in /  33775.4 hPa Calm     98 % 0.0 in /  0 mm
23:30 0.0 °F /  -17.8 °C -0.3 °F /  -17.9 °C 997.5 in /  33775.4 hPa Calm     98 % 0.0 in /  0 mm
23:45 -0.1 °F /  -17.8 °C -0.5 °F /  -18.1 °C 997.5 in /  33775.4 hPa Calm     97 % 0.0 in /  0 mm
Esan sääasema
Terveisin Weather Underground - 2.75 mb

Alkuperäinen skripti  Jim McMurry - jmcmurry@mwt.net Sovitettu myös templatelle  Wim van der Kuil - Leuven-Template.eu

Laitteet joita käytämme:

Sääasema
Davis VP2

Sääasemaohjelma
Cumulus

Sääaseman tietokone
Asus EeePC

Palveluntarjoaja
Suncomet

Davis VP2

Cumulus

Asus EeePC

Suncomet